sensor_id;sensor_type;location;lat;lon;timestamp;pressure;altitude;pressure_sealevel;temperature;humidity
77881;BME280;67077;50.298;18.996;2024-03-06T00:01:23;98127.36;;;0.93;100.00
77881;BME280;67077;50.298;18.996;2024-03-06T00:03:50;98127.06;;;0.90;100.00
77881;BME280;67077;50.298;18.996;2024-03-06T00:06:18;98125.05;;;0.87;100.00
77881;BME280;67077;50.298;18.996;2024-03-06T00:08:46;98127.31;;;0.86;100.00
77881;BME280;67077;50.298;18.996;2024-03-06T00:11:14;98125.94;;;0.84;100.00
77881;BME280;67077;50.298;18.996;2024-03-06T00:13:42;98127.83;;;0.83;100.00
77881;BME280;67077;50.298;18.996;2024-03-06T00:16:11;98126.45;;;0.81;100.00
77881;BME280;67077;50.298;18.996;2024-03-06T00:18:38;98128.21;;;0.79;100.00
77881;BME280;67077;50.298;18.996;2024-03-06T00:21:06;98133.52;;;0.78;100.00
77881;BME280;67077;50.298;18.996;2024-03-06T00:23:34;98132.09;;;0.76;100.00
77881;BME280;67077;50.298;18.996;2024-03-06T00:26:03;98134.08;;;0.74;100.00
77881;BME280;67077;50.298;18.996;2024-03-06T00:28:31;98135.86;;;0.72;100.00
77881;BME280;67077;50.298;18.996;2024-03-06T00:30:59;98135.36;;;0.72;100.00
77881;BME280;67077;50.298;18.996;2024-03-06T00:33:27;98140.89;;;0.73;100.00
77881;BME280;67077;50.298;18.996;2024-03-06T00:35:55;98143.44;;;0.73;100.00
77881;BME280;67077;50.298;18.996;2024-03-06T00:38:22;98143.64;;;0.71;100.00
77881;BME280;67077;50.298;18.996;2024-03-06T00:40:50;98148.97;;;0.67;100.00
77881;BME280;67077;50.298;18.996;2024-03-06T00:43:18;98152.11;;;0.64;100.00
77881;BME280;67077;50.298;18.996;2024-03-06T00:45:46;98154.73;;;0.61;100.00
77881;BME280;67077;50.298;18.996;2024-03-06T00:48:14;98152.34;;;0.58;100.00
77881;BME280;67077;50.298;18.996;2024-03-06T00:50:41;98152.38;;;0.56;100.00
77881;BME280;67077;50.298;18.996;2024-03-06T00:53:09;98154.98;;;0.55;100.00
77881;BME280;67077;50.298;18.996;2024-03-06T00:55:37;98156.78;;;0.55;100.00
77881;BME280;67077;50.298;18.996;2024-03-06T00:58:05;98153.48;;;0.54;100.00
77881;BME280;67077;50.298;18.996;2024-03-06T01:00:34;98157.84;;;0.53;100.00
77881;BME280;67077;50.298;18.996;2024-03-06T01:03:02;98159.98;;;0.49;100.00
77881;BME280;67077;50.298;18.996;2024-03-06T01:05:30;98156.59;;;0.44;100.00
77881;BME280;67077;50.298;18.996;2024-03-06T01:07:58;98157.27;;;0.37;100.00
77881;BME280;67077;50.298;18.996;2024-03-06T01:10:26;98156.98;;;0.29;100.00
77881;BME280;67077;50.298;18.996;2024-03-06T01:12:54;98157.77;;;0.22;100.00
77881;BME280;67077;50.298;18.996;2024-03-06T01:15:22;98158.21;;;0.14;100.00
77881;BME280;67077;50.298;18.996;2024-03-06T01:17:50;98164.20;;;0.07;100.00
77881;BME280;67077;50.298;18.996;2024-03-06T01:20:17;98166.85;;;0.04;100.00
77881;BME280;67077;50.298;18.996;2024-03-06T01:22:46;98168.16;;;-0.01;100.00
77881;BME280;67077;50.298;18.996;2024-03-06T01:25:14;98168.13;;;-0.04;100.00
77881;BME280;67077;50.298;18.996;2024-03-06T01:27:42;98169.15;;;-0.09;100.00
77881;BME280;67077;50.298;18.996;2024-03-06T01:30:10;98166.79;;;-0.14;100.00
77881;BME280;67077;50.298;18.996;2024-03-06T01:32:38;98169.27;;;-0.19;100.00
77881;BME280;67077;50.298;18.996;2024-03-06T01:35:06;98170.92;;;-0.23;100.00
77881;BME280;67077;50.298;18.996;2024-03-06T01:37:34;98175.85;;;-0.28;100.00
77881;BME280;67077;50.298;18.996;2024-03-06T01:40:03;98177.75;;;-0.32;100.00
77881;BME280;67077;50.298;18.996;2024-03-06T01:42:32;98177.21;;;-0.36;100.00
77881;BME280;67077;50.298;18.996;2024-03-06T01:45:01;98176.77;;;-0.40;100.00
77881;BME280;67077;50.298;18.996;2024-03-06T01:47:29;98172.80;;;-0.43;100.00
77881;BME280;67077;50.298;18.996;2024-03-06T01:49:57;98176.40;;;-0.45;100.00
77881;BME280;67077;50.298;18.996;2024-03-06T01:52:26;98178.52;;;-0.47;100.00
77881;BME280;67077;50.298;18.996;2024-03-06T01:54:54;98183.09;;;-0.49;100.00
77881;BME280;67077;50.298;18.996;2024-03-06T01:57:24;98177.65;;;-0.49;100.00
77881;BME280;67077;50.298;18.996;2024-03-06T01:59:52;98179.27;;;-0.49;100.00
77881;BME280;67077;50.298;18.996;2024-03-06T02:02:20;98176.86;;;-0.52;100.00
77881;BME280;67077;50.298;18.996;2024-03-06T02:04:48;98178.80;;;-0.55;100.00
77881;BME280;67077;50.298;18.996;2024-03-06T02:07:17;98176.16;;;-0.57;100.00
77881;BME280;67077;50.298;18.996;2024-03-06T02:09:46;98173.63;;;-0.58;100.00
77881;BME280;67077;50.298;18.996;2024-03-06T02:12:14;98174.77;;;-0.59;100.00
77881;BME280;67077;50.298;18.996;2024-03-06T02:14:43;98174.41;;;-0.62;100.00
77881;BME280;67077;50.298;18.996;2024-03-06T02:17:11;98172.56;;;-0.63;100.00
77881;BME280;67077;50.298;18.996;2024-03-06T02:19:40;98171.72;;;-0.63;100.00
77881;BME280;67077;50.298;18.996;2024-03-06T02:22:09;98177.12;;;-0.62;100.00
77881;BME280;67077;50.298;18.996;2024-03-06T02:24:40;98177.48;;;-0.63;100.00
77881;BME280;67077;50.298;18.996;2024-03-06T02:27:08;98178.54;;;-0.62;100.00
77881;BME280;67077;50.298;18.996;2024-03-06T02:29:36;98180.59;;;-0.62;100.00
77881;BME280;67077;50.298;18.996;2024-03-06T02:32:05;98179.97;;;-0.62;100.00
77881;BME280;67077;50.298;18.996;2024-03-06T02:34:34;98180.94;;;-0.65;100.00
77881;BME280;67077;50.298;18.996;2024-03-06T02:37:01;98176.77;;;-0.66;100.00
77881;BME280;67077;50.298;18.996;2024-03-06T02:39:29;98177.27;;;-0.69;100.00
77881;BME280;67077;50.298;18.996;2024-03-06T02:41:57;98175.80;;;-0.72;100.00
77881;BME280;67077;50.298;18.996;2024-03-06T02:44:25;98182.05;;;-0.75;100.00
77881;BME280;67077;50.298;18.996;2024-03-06T02:46:53;98174.70;;;-0.75;100.00
77881;BME280;67077;50.298;18.996;2024-03-06T02:49:21;98177.09;;;-0.76;100.00
77881;BME280;67077;50.298;18.996;2024-03-06T02:51:48;98177.38;;;-0.78;100.00
77881;BME280;67077;50.298;18.996;2024-03-06T02:54:16;98181.60;;;-0.77;100.00
77881;BME280;67077;50.298;18.996;2024-03-06T02:56:44;98182.13;;;-0.79;100.00
77881;BME280;67077;50.298;18.996;2024-03-06T02:59:12;98183.14;;;-0.81;100.00
77881;BME280;67077;50.298;18.996;2024-03-06T03:01:40;98184.01;;;-0.84;100.00
77881;BME280;67077;50.298;18.996;2024-03-06T03:04:10;98181.03;;;-0.88;100.00
77881;BME280;67077;50.298;18.996;2024-03-06T03:06:37;98183.16;;;-0.92;100.00
77881;BME280;67077;50.298;18.996;2024-03-06T03:09:05;98182.00;;;-0.97;100.00
77881;BME280;67077;50.298;18.996;2024-03-06T03:11:33;98181.94;;;-1.02;100.00
77881;BME280;67077;50.298;18.996;2024-03-06T03:14:01;98182.85;;;-1.05;100.00
77881;BME280;67077;50.298;18.996;2024-03-06T03:16:29;98181.97;;;-1.09;100.00
77881;BME280;67077;50.298;18.996;2024-03-06T03:18:57;98180.95;;;-1.11;100.00
77881;BME280;67077;50.298;18.996;2024-03-06T03:21:25;98185.51;;;-1.13;100.00
77881;BME280;67077;50.298;18.996;2024-03-06T03:23:53;98186.46;;;-1.16;100.00
77881;BME280;67077;50.298;18.996;2024-03-06T03:26:21;98187.26;;;-1.18;100.00
77881;BME280;67077;50.298;18.996;2024-03-06T03:28:48;98183.95;;;-1.21;100.00
77881;BME280;67077;50.298;18.996;2024-03-06T03:31:16;98186.95;;;-1.23;100.00
77881;BME280;67077;50.298;18.996;2024-03-06T03:33:44;98190.25;;;-1.26;100.00
77881;BME280;67077;50.298;18.996;2024-03-06T03:36:12;98192.63;;;-1.31;100.00
77881;BME280;67077;50.298;18.996;2024-03-06T03:38:39;98193.34;;;-1.35;100.00
77881;BME280;67077;50.298;18.996;2024-03-06T03:41:09;98193.77;;;-1.37;100.00
77881;BME280;67077;50.298;18.996;2024-03-06T03:43:38;98193.52;;;-1.38;100.00
77881;BME280;67077;50.298;18.996;2024-03-06T03:46:06;98197.33;;;-1.41;100.00
77881;BME280;67077;50.298;18.996;2024-03-06T03:48:35;98198.23;;;-1.45;100.00
77881;BME280;67077;50.298;18.996;2024-03-06T03:51:04;98198.88;;;-1.49;100.00
77881;BME280;67077;50.298;18.996;2024-03-06T03:53:34;98195.43;;;-1.51;100.00
77881;BME280;67077;50.298;18.996;2024-03-06T03:56:02;98199.63;;;-1.55;100.00
77881;BME280;67077;50.298;18.996;2024-03-06T03:58:30;98203.23;;;-1.58;100.00
77881;BME280;67077;50.298;18.996;2024-03-06T04:00:58;98204.55;;;-1.60;100.00
77881;BME280;67077;50.298;18.996;2024-03-06T04:03:26;98206.42;;;-1.67;100.00
77881;BME280;67077;50.298;18.996;2024-03-06T04:05:54;98207.88;;;-1.73;100.00
77881;BME280;67077;50.298;18.996;2024-03-06T04:08:22;98205.29;;;-1.76;100.00
77881;BME280;67077;50.298;18.996;2024-03-06T04:10:51;98210.23;;;-1.76;100.00
77881;BME280;67077;50.298;18.996;2024-03-06T04:13:19;98211.07;;;-1.75;100.00
77881;BME280;67077;50.298;18.996;2024-03-06T04:15:48;98208.48;;;-1.76;100.00
77881;BME280;67077;50.298;18.996;2024-03-06T04:18:15;98214.61;;;-1.79;100.00
77881;BME280;67077;50.298;18.996;2024-03-06T04:20:43;98210.85;;;-1.83;100.00
77881;BME280;67077;50.298;18.996;2024-03-06T04:23:11;98214.26;;;-1.86;100.00
77881;BME280;67077;50.298;18.996;2024-03-06T04:25:39;98214.52;;;-1.90;100.00
77881;BME280;67077;50.298;18.996;2024-03-06T04:28:07;98212.45;;;-1.93;100.00
77881;BME280;67077;50.298;18.996;2024-03-06T04:30:37;98212.77;;;-1.94;100.00
77881;BME280;67077;50.298;18.996;2024-03-06T04:33:05;98214.45;;;-1.95;100.00
77881;BME280;67077;50.298;18.996;2024-03-06T04:35:33;98219.73;;;-1.95;100.00
77881;BME280;67077;50.298;18.996;2024-03-06T04:38:01;98223.46;;;-1.95;100.00
77881;BME280;67077;50.298;18.996;2024-03-06T04:40:31;98221.45;;;-1.95;100.00
77881;BME280;67077;50.298;18.996;2024-03-06T04:42:59;98223.16;;;-1.94;100.00
77881;BME280;67077;50.298;18.996;2024-03-06T04:45:27;98224.72;;;-1.94;100.00
77881;BME280;67077;50.298;18.996;2024-03-06T04:47:56;98220.68;;;-1.94;100.00
77881;BME280;67077;50.298;18.996;2024-03-06T04:50:24;98218.45;;;-1.95;100.00
77881;BME280;67077;50.298;18.996;2024-03-06T04:52:52;98221.88;;;-1.93;100.00
77881;BME280;67077;50.298;18.996;2024-03-06T04:55:20;98227.65;;;-1.95;100.00
77881;BME280;67077;50.298;18.996;2024-03-06T04:57:51;98229.93;;;-1.99;100.00
77881;BME280;67077;50.298;18.996;2024-03-06T05:00:21;98230.66;;;-2.03;100.00
77881;BME280;67077;50.298;18.996;2024-03-06T05:02:49;98235.52;;;-2.04;100.00
77881;BME280;67077;50.298;18.996;2024-03-06T05:05:16;98233.31;;;-2.03;100.00
77881;BME280;67077;50.298;18.996;2024-03-06T05:07:44;98233.75;;;-2.02;100.00
77881;BME280;67077;50.298;18.996;2024-03-06T05:10:13;98232.84;;;-2.00;100.00
77881;BME280;67077;50.298;18.996;2024-03-06T05:12:41;98238.13;;;-1.98;100.00
77881;BME280;67077;50.298;18.996;2024-03-06T05:15:10;98237.83;;;-1.96;100.00
77881;BME280;67077;50.298;18.996;2024-03-06T05:17:41;98237.91;;;-1.95;100.00
77881;BME280;67077;50.298;18.996;2024-03-06T05:20:09;98242.14;;;-1.93;100.00
77881;BME280;67077;50.298;18.996;2024-03-06T05:22:38;98238.89;;;-1.92;100.00
77881;BME280;67077;50.298;18.996;2024-03-06T05:25:06;98242.73;;;-1.90;100.00
77881;BME280;67077;50.298;18.996;2024-03-06T05:27:34;98243.48;;;-1.89;100.00
77881;BME280;67077;50.298;18.996;2024-03-06T05:30:02;98243.51;;;-1.89;100.00
77881;BME280;67077;50.298;18.996;2024-03-06T05:32:33;98245.48;;;-1.89;100.00
77881;BME280;67077;50.298;18.996;2024-03-06T05:35:00;98245.88;;;-1.90;100.00
77881;BME280;67077;50.298;18.996;2024-03-06T05:37:28;98249.65;;;-1.90;100.00
77881;BME280;67077;50.298;18.996;2024-03-06T05:39:56;98252.63;;;-1.90;100.00
77881;BME280;67077;50.298;18.996;2024-03-06T05:42:24;98255.19;;;-1.89;100.00
77881;BME280;67077;50.298;18.996;2024-03-06T05:44:51;98259.27;;;-1.87;100.00
77881;BME280;67077;50.298;18.996;2024-03-06T05:47:22;98255.86;;;-1.85;100.00
77881;BME280;67077;50.298;18.996;2024-03-06T05:49:50;98263.47;;;-1.83;100.00
77881;BME280;67077;50.298;18.996;2024-03-06T05:52:18;98262.02;;;-1.80;100.00
77881;BME280;67077;50.298;18.996;2024-03-06T05:54:45;98263.03;;;-1.77;100.00
77881;BME280;67077;50.298;18.996;2024-03-06T05:57:13;98263.89;;;-1.75;100.00
77881;BME280;67077;50.298;18.996;2024-03-06T05:59:42;98266.34;;;-1.73;100.00
77881;BME280;67077;50.298;18.996;2024-03-06T06:02:10;98271.77;;;-1.69;100.00
77881;BME280;67077;50.298;18.996;2024-03-06T06:04:38;98272.37;;;-1.64;100.00
77881;BME280;67077;50.298;18.996;2024-03-06T06:07:06;98276.63;;;-1.58;100.00
77881;BME280;67077;50.298;18.996;2024-03-06T06:09:34;98276.72;;;-1.54;100.00
77881;BME280;67077;50.298;18.996;2024-03-06T06:12:01;98277.02;;;-1.48;100.00
77881;BME280;67077;50.298;18.996;2024-03-06T06:14:30;98283.80;;;-1.44;100.00
77881;BME280;67077;50.298;18.996;2024-03-06T06:16:58;98282.44;;;-1.40;100.00
77881;BME280;67077;50.298;18.996;2024-03-06T06:19:26;98281.15;;;-1.36;100.00
77881;BME280;67077;50.298;18.996;2024-03-06T06:21:54;98283.25;;;-1.28;100.00
77881;BME280;67077;50.298;18.996;2024-03-06T06:24:22;98282.89;;;-1.22;100.00
77881;BME280;67077;50.298;18.996;2024-03-06T06:26:50;98278.71;;;-1.17;100.00
77881;BME280;67077;50.298;18.996;2024-03-06T06:29:18;98277.66;;;-1.11;100.00
77881;BME280;67077;50.298;18.996;2024-03-06T06:31:46;98273.78;;;-1.04;100.00
77881;BME280;67077;50.298;18.996;2024-03-06T06:34:14;98274.20;;;-0.95;100.00
77881;BME280;67077;50.298;18.996;2024-03-06T06:36:46;98275.80;;;-0.91;100.00
77881;BME280;67077;50.298;18.996;2024-03-06T06:39:13;98280.66;;;-0.89;100.00
77881;BME280;67077;50.298;18.996;2024-03-06T06:41:41;98282.25;;;-0.85;100.00
77881;BME280;67077;50.298;18.996;2024-03-06T06:44:10;98282.64;;;-0.78;100.00
77881;BME280;67077;50.298;18.996;2024-03-06T06:46:39;98285.48;;;-0.70;100.00
77881;BME280;67077;50.298;18.996;2024-03-06T06:49:07;98281.05;;;-0.67;100.00
77881;BME280;67077;50.298;18.996;2024-03-06T06:51:34;98279.92;;;-0.62;100.00
77881;BME280;67077;50.298;18.996;2024-03-06T06:54:02;98281.30;;;-0.54;100.00
77881;BME280;67077;50.298;18.996;2024-03-06T06:56:31;98280.10;;;-0.45;100.00
77881;BME280;67077;50.298;18.996;2024-03-06T06:58:59;98283.41;;;-0.41;100.00
77881;BME280;67077;50.298;18.996;2024-03-06T07:01:27;98284.05;;;-0.38;100.00
77881;BME280;67077;50.298;18.996;2024-03-06T07:03:57;98283.27;;;-0.34;100.00
77881;BME280;67077;50.298;18.996;2024-03-06T07:06:25;98283.79;;;-0.30;100.00
77881;BME280;67077;50.298;18.996;2024-03-06T07:08:53;98279.83;;;-0.29;100.00
77881;BME280;67077;50.298;18.996;2024-03-06T07:11:21;98281.12;;;-0.20;100.00
77881;BME280;67077;50.298;18.996;2024-03-06T07:13:49;98283.29;;;-0.10;100.00
77881;BME280;67077;50.298;18.996;2024-03-06T07:16:17;98284.88;;;0.01;100.00
77881;BME280;67077;50.298;18.996;2024-03-06T07:18:45;98283.70;;;0.08;100.00
77881;BME280;67077;50.298;18.996;2024-03-06T07:21:14;98282.77;;;0.12;100.00
77881;BME280;67077;50.298;18.996;2024-03-06T07:23:42;98284.54;;;0.09;100.00
77881;BME280;67077;50.298;18.996;2024-03-06T07:26:09;98283.92;;;0.08;100.00
77881;BME280;67077;50.298;18.996;2024-03-06T07:28:37;98285.95;;;0.11;100.00
77881;BME280;67077;50.298;18.996;2024-03-06T07:31:05;98288.50;;;0.17;100.00
77881;BME280;67077;50.298;18.996;2024-03-06T07:33:33;98287.14;;;0.24;100.00
77881;BME280;67077;50.298;18.996;2024-03-06T07:36:01;98289.08;;;0.33;100.00
77881;BME280;67077;50.298;18.996;2024-03-06T07:38:29;98294.35;;;0.39;100.00
77881;BME280;67077;50.298;18.996;2024-03-06T07:40:57;98296.30;;;0.48;100.00
77881;BME280;67077;50.298;18.996;2024-03-06T07:43:25;98299.86;;;0.44;100.00
77881;BME280;67077;50.298;18.996;2024-03-06T07:45:54;98299.55;;;0.38;100.00
77881;BME280;67077;50.298;18.996;2024-03-06T07:48:21;98299.92;;;0.34;100.00
77881;BME280;67077;50.298;18.996;2024-03-06T07:50:49;98301.85;;;0.38;100.00
77881;BME280;67077;50.298;18.996;2024-03-06T07:53:17;98300.60;;;0.45;100.00
77881;BME280;67077;50.298;18.996;2024-03-06T07:55:43;98305.04;;;0.49;100.00
77881;BME280;67077;50.298;18.996;2024-03-06T07:58:10;98305.81;;;0.57;100.00
77881;BME280;67077;50.298;18.996;2024-03-06T08:00:36;98309.42;;;0.69;100.00
77881;BME280;67077;50.298;18.996;2024-03-06T08:03:02;98311.02;;;0.83;100.00
77881;BME280;67077;50.298;18.996;2024-03-06T08:05:28;98309.70;;;0.95;100.00
77881;BME280;67077;50.298;18.996;2024-03-06T08:07:54;98313.12;;;1.03;100.00
77881;BME280;67077;50.298;18.996;2024-03-06T08:10:20;98312.09;;;1.08;100.00
77881;BME280;67077;50.298;18.996;2024-03-06T08:12:46;98311.81;;;1.05;100.00
77881;BME280;67077;50.298;18.996;2024-03-06T08:15:14;98311.63;;;1.04;100.00
77881;BME280;67077;50.298;18.996;2024-03-06T08:17:41;98314.82;;;1.07;100.00
77881;BME280;67077;50.298;18.996;2024-03-06T08:20:09;98314.63;;;1.16;100.00
77881;BME280;67077;50.298;18.996;2024-03-06T08:22:40;98312.40;;;1.28;100.00
77881;BME280;67077;50.298;18.996;2024-03-06T08:25:11;98318.00;;;1.39;100.00
77881;BME280;67077;50.298;18.996;2024-03-06T08:27:39;98312.65;;;1.43;100.00
77881;BME280;67077;50.298;18.996;2024-03-06T08:30:06;98314.98;;;1.49;100.00
77881;BME280;67077;50.298;18.996;2024-03-06T08:32:34;98311.77;;;1.60;100.00
77881;BME280;67077;50.298;18.996;2024-03-06T08:35:11;98312.91;;;1.69;100.00
77881;BME280;67077;50.298;18.996;2024-03-06T08:37:38;98310.86;;;1.78;100.00
77881;BME280;67077;50.298;18.996;2024-03-06T08:40:06;98305.09;;;1.89;100.00
77881;BME280;67077;50.298;18.996;2024-03-06T08:42:33;98306.85;;;2.01;100.00
77881;BME280;67077;50.298;18.996;2024-03-06T08:44:59;98308.67;;;2.05;100.00
77881;BME280;67077;50.298;18.996;2024-03-06T08:47:26;98308.31;;;2.16;100.00
77881;BME280;67077;50.298;18.996;2024-03-06T08:49:52;98312.04;;;2.31;100.00
77881;BME280;67077;50.298;18.996;2024-03-06T08:52:18;98312.05;;;2.46;100.00
77881;BME280;67077;50.298;18.996;2024-03-06T08:54:44;98315.28;;;2.54;100.00
77881;BME280;67077;50.298;18.996;2024-03-06T08:57:10;98314.70;;;2.61;100.00
77881;BME280;67077;50.298;18.996;2024-03-06T08:59:37;98317.82;;;2.70;100.00
77881;BME280;67077;50.298;18.996;2024-03-06T09:02:18;98319.98;;;2.82;100.00
77881;BME280;67077;50.298;18.996;2024-03-06T09:04:46;98321.73;;;2.91;100.00
77881;BME280;67077;50.298;18.996;2024-03-06T09:07:13;98319.58;;;3.10;100.00
77881;BME280;67077;50.298;18.996;2024-03-06T09:09:40;98317.98;;;3.29;100.00
77881;BME280;67077;50.298;18.996;2024-03-06T09:12:08;98314.00;;;3.43;100.00
77881;BME280;67077;50.298;18.996;2024-03-06T09:14:39;98312.82;;;3.57;100.00
77881;BME280;67077;50.298;18.996;2024-03-06T09:17:08;98312.52;;;3.69;100.00
77881;BME280;67077;50.298;18.996;2024-03-06T09:19:41;98307.38;;;3.77;100.00
77881;BME280;67077;50.298;18.996;2024-03-06T09:22:07;98305.01;;;3.80;100.00
77881;BME280;67077;50.298;18.996;2024-03-06T09:24:33;98304.75;;;3.83;100.00
77881;BME280;67077;50.298;18.996;2024-03-06T09:27:04;98302.48;;;3.76;100.00
77881;BME280;67077;50.298;18.996;2024-03-06T09:29:31;98304.49;;;3.76;100.00
77881;BME280;67077;50.298;18.996;2024-03-06T09:31:57;98302.08;;;3.80;100.00
77881;BME280;67077;50.298;18.996;2024-03-06T09:34:25;98305.73;;;3.85;100.00
77881;BME280;67077;50.298;18.996;2024-03-06T09:36:51;98305.69;;;3.93;100.00
77881;BME280;67077;50.298;18.996;2024-03-06T09:39:18;98304.73;;;4.02;100.00
77881;BME280;67077;50.298;18.996;2024-03-06T09:41:52;98307.59;;;4.07;100.00
77881;BME280;67077;50.298;18.996;2024-03-06T09:44:20;98309.42;;;4.11;100.00
77881;BME280;67077;50.298;18.996;2024-03-06T09:46:48;98306.92;;;4.14;100.00
77881;BME280;67077;50.298;18.996;2024-03-06T09:49:16;98308.37;;;4.15;100.00
77881;BME280;67077;50.298;18.996;2024-03-06T09:51:43;98307.17;;;4.15;100.00
77881;BME280;67077;50.298;18.996;2024-03-06T09:54:14;98308.02;;;4.12;100.00
77881;BME280;67077;50.298;18.996;2024-03-06T09:56:44;98303.60;;;4.07;100.00
77881;BME280;67077;50.298;18.996;2024-03-06T09:59:11;98304.55;;;4.04;100.00
77881;BME280;67077;50.298;18.996;2024-03-06T10:01:44;98308.36;;;4.00;100.00
77881;BME280;67077;50.298;18.996;2024-03-06T10:04:27;98308.21;;;3.98;100.00
77881;BME280;67077;50.298;18.996;2024-03-06T10:06:58;98307.81;;;3.95;100.00
77881;BME280;67077;50.298;18.996;2024-03-06T10:09:26;98310.40;;;3.93;100.00
77881;BME280;67077;50.298;18.996;2024-03-06T10:11:53;98304.46;;;3.90;100.00
77881;BME280;67077;50.298;18.996;2024-03-06T10:14:21;98309.05;;;3.89;100.00
77881;BME280;67077;50.298;18.996;2024-03-06T10:19:19;98314.58;;;3.82;100.00
77881;BME280;67077;50.298;18.996;2024-03-06T10:21:49;98316.13;;;3.77;100.00
77881;BME280;67077;50.298;18.996;2024-03-06T10:24:21;98314.58;;;3.70;100.00
77881;BME280;67077;50.298;18.996;2024-03-06T10:26:50;98320.32;;;3.67;100.00
77881;BME280;67077;50.298;18.996;2024-03-06T10:29:17;98319.24;;;3.63;100.00
77881;BME280;67077;50.298;18.996;2024-03-06T10:34:14;98320.06;;;3.59;100.00
77881;BME280;67077;50.298;18.996;2024-03-06T10:36:40;98319.64;;;3.54;100.00
77881;BME280;67077;50.298;18.996;2024-03-06T10:39:11;98319.14;;;3.48;100.00
77881;BME280;67077;50.298;18.996;2024-03-06T10:41:40;98325.13;;;3.42;100.00
77881;BME280;67077;50.298;18.996;2024-03-06T10:44:12;98321.06;;;3.37;100.00
77881;BME280;67077;50.298;18.996;2024-03-06T10:46:43;98315.16;;;3.34;100.00
77881;BME280;67077;50.298;18.996;2024-03-06T10:49:19;98317.61;;;3.29;100.00
77881;BME280;67077;50.298;18.996;2024-03-06T10:51:46;98316.95;;;3.26;100.00
77881;BME280;67077;50.298;18.996;2024-03-06T10:54:13;98315.95;;;3.22;100.00
77881;BME280;67077;50.298;18.996;2024-03-06T10:56:40;98315.04;;;3.19;100.00
77881;BME280;67077;50.298;18.996;2024-03-06T10:59:11;98318.77;;;3.16;100.00
77881;BME280;67077;50.298;18.996;2024-03-06T11:01:39;98320.85;;;3.10;100.00
77881;BME280;67077;50.298;18.996;2024-03-06T11:04:06;98314.82;;;3.03;100.00
77881;BME280;67077;50.298;18.996;2024-03-06T11:06:34;98317.60;;;2.97;100.00
77881;BME280;67077;50.298;18.996;2024-03-06T11:09:01;98317.86;;;2.91;100.00
77881;BME280;67077;50.298;18.996;2024-03-06T11:11:29;98315.48;;;2.87;100.00
77881;BME280;67077;50.298;18.996;2024-03-06T11:13:55;98308.73;;;2.83;100.00
77881;BME280;67077;50.298;18.996;2024-03-06T11:16:31;98310.31;;;2.80;100.00
77881;BME280;67077;50.298;18.996;2024-03-06T11:19:06;98310.17;;;2.78;100.00
77881;BME280;67077;50.298;18.996;2024-03-06T11:21:45;98308.01;;;2.77;100.00
77881;BME280;67077;50.298;18.996;2024-03-06T11:26:46;98305.27;;;2.74;100.00
77881;BME280;67077;50.298;18.996;2024-03-06T11:29:15;98305.80;;;2.73;100.00
77881;BME280;67077;50.298;18.996;2024-03-06T11:32:03;98303.38;;;2.70;100.00
77881;BME280;67077;50.298;18.996;2024-03-06T11:34:29;98299.73;;;2.66;100.00
77881;BME280;67077;50.298;18.996;2024-03-06T11:37:02;98302.27;;;2.64;100.00
77881;BME280;67077;50.298;18.996;2024-03-06T11:39:35;98304.70;;;2.63;100.00
77881;BME280;67077;50.298;18.996;2024-03-06T11:42:02;98297.36;;;2.60;100.00
77881;BME280;67077;50.298;18.996;2024-03-06T11:44:29;98294.88;;;2.60;100.00
77881;BME280;67077;50.298;18.996;2024-03-06T11:49:25;98291.84;;;2.62;100.00
77881;BME280;67077;50.298;18.996;2024-03-06T11:51:57;98292.13;;;2.61;100.00
77881;BME280;67077;50.298;18.996;2024-03-06T11:54:24;98293.42;;;2.61;100.00
77881;BME280;67077;50.298;18.996;2024-03-06T11:56:54;98289.38;;;2.60;100.00
77881;BME280;67077;50.298;18.996;2024-03-06T11:59:21;98290.16;;;2.61;100.00
77881;BME280;67077;50.298;18.996;2024-03-06T12:01:48;98288.07;;;2.62;100.00
77881;BME280;67077;50.298;18.996;2024-03-06T12:04:15;98288.20;;;2.63;100.00
77881;BME280;67077;50.298;18.996;2024-03-06T12:06:41;98288.16;;;2.63;100.00
77881;BME280;67077;50.298;18.996;2024-03-06T12:09:07;98283.23;;;2.64;100.00
77881;BME280;67077;50.298;18.996;2024-03-06T12:11:37;98289.40;;;2.63;100.00
77881;BME280;67077;50.298;18.996;2024-03-06T12:14:03;98284.69;;;2.61;100.00
77881;BME280;67077;50.298;18.996;2024-03-06T12:16:29;98286.83;;;2.61;100.00
77881;BME280;67077;50.298;18.996;2024-03-06T12:18:56;98282.96;;;2.60;100.00
77881;BME280;67077;50.298;18.996;2024-03-06T12:21:32;98284.06;;;2.60;100.00
77881;BME280;67077;50.298;18.996;2024-03-06T12:24:07;98284.13;;;2.59;100.00
77881;BME280;67077;50.298;18.996;2024-03-06T12:26:34;98282.98;;;2.62;100.00
77881;BME280;67077;50.298;18.996;2024-03-06T12:29:11;98284.77;;;2.63;100.00
77881;BME280;67077;50.298;18.996;2024-03-06T12:31:38;98282.29;;;2.65;100.00
77881;BME280;67077;50.298;18.996;2024-03-06T12:34:07;98283.56;;;2.64;100.00
77881;BME280;67077;50.298;18.996;2024-03-06T12:36:35;98282.77;;;2.65;100.00
77881;BME280;67077;50.298;18.996;2024-03-06T12:39:03;98282.83;;;2.66;100.00
77881;BME280;67077;50.298;18.996;2024-03-06T12:41:29;98282.69;;;2.66;100.00
77881;BME280;67077;50.298;18.996;2024-03-06T12:43:56;98282.19;;;2.66;100.00
77881;BME280;67077;50.298;18.996;2024-03-06T12:46:23;98284.23;;;2.65;100.00
77881;BME280;67077;50.298;18.996;2024-03-06T12:48:51;98282.33;;;2.61;100.00
77881;BME280;67077;50.298;18.996;2024-03-06T12:51:17;98280.34;;;2.60;100.00
77881;BME280;67077;50.298;18.996;2024-03-06T12:53:43;98285.11;;;2.60;100.00
77881;BME280;67077;50.298;18.996;2024-03-06T12:56:09;98284.54;;;2.60;100.00
77881;BME280;67077;50.298;18.996;2024-03-06T12:58:35;98285.27;;;2.58;100.00
77881;BME280;67077;50.298;18.996;2024-03-06T13:01:02;98283.27;;;2.57;100.00